Terminal Aerodrome Forecast
Issued by NWS Cleveland, OH

Home | Current Version | Previous Version | Graphics & Text | Print | Product List | Glossary On
Versions: 1 2 3 4 5 6 7 8 9 10 11 12 13 14 15 16 17 18 19
000
FTUS41 KCLE 271100
TAFMFD
TAF
KMFD 271139Z 2712/2812 32003KT 1/2SM FG OVC002
     FM271330 34005KT 2SM BR BKN005 OVC018
     FM271430 35005KT P6SM BKN012
     FM271600 01008KT P6SM BKN025
     FM271900 01008KT P6SM SCT035
     FM280000 02004KT P6SM SCT250=

USA.gov is the U.S. government's official web portal to all federal, state and local government web resources and services.